sensor_id;sensor_type;location;lat;lon;timestamp;temperature;humidity
3727;DHT22;1879;45.876;12.300;2023-01-08T00:02:15;9.50;99.90
3727;DHT22;1879;45.876;12.300;2023-01-08T00:04:42;9.50;99.90
3727;DHT22;1879;45.876;12.300;2023-01-08T00:07:11;9.60;99.90
3727;DHT22;1879;45.876;12.300;2023-01-08T00:09:38;9.70;99.90
3727;DHT22;1879;45.876;12.300;2023-01-08T00:12:06;9.70;99.90
3727;DHT22;1879;45.876;12.300;2023-01-08T00:14:34;9.70;99.90
3727;DHT22;1879;45.876;12.300;2023-01-08T00:17:01;9.70;99.90
3727;DHT22;1879;45.876;12.300;2023-01-08T00:19:30;9.80;99.90
3727;DHT22;1879;45.876;12.300;2023-01-08T00:21:57;9.80;99.90
3727;DHT22;1879;45.876;12.300;2023-01-08T00:24:24;9.80;99.90
3727;DHT22;1879;45.876;12.300;2023-01-08T00:26:51;9.90;99.90
3727;DHT22;1879;45.876;12.300;2023-01-08T00:29:18;9.80;99.90
3727;DHT22;1879;45.876;12.300;2023-01-08T00:31:45;9.90;99.90
3727;DHT22;1879;45.876;12.300;2023-01-08T00:34:11;9.80;99.90
3727;DHT22;1879;45.876;12.300;2023-01-08T00:36:40;9.80;99.90
3727;DHT22;1879;45.876;12.300;2023-01-08T00:39:07;9.90;99.90
3727;DHT22;1879;45.876;12.300;2023-01-08T00:41:34;9.90;99.90
3727;DHT22;1879;45.876;12.300;2023-01-08T00:44:00;9.90;99.90
3727;DHT22;1879;45.876;12.300;2023-01-08T00:46:27;9.90;99.90
3727;DHT22;1879;45.876;12.300;2023-01-08T00:48:54;9.90;99.90
3727;DHT22;1879;45.876;12.300;2023-01-08T00:51:21;9.90;99.90
3727;DHT22;1879;45.876;12.300;2023-01-08T00:53:50;9.80;99.90
3727;DHT22;1879;45.876;12.300;2023-01-08T00:56:18;9.80;99.90
3727;DHT22;1879;45.876;12.300;2023-01-08T00:58:45;9.80;99.90
3727;DHT22;1879;45.876;12.300;2023-01-08T01:01:14;9.80;99.90
3727;DHT22;1879;45.876;12.300;2023-01-08T01:03:42;9.80;99.90
3727;DHT22;1879;45.876;12.300;2023-01-08T01:06:10;9.70;99.90
3727;DHT22;1879;45.876;12.300;2023-01-08T01:08:37;9.70;99.90
3727;DHT22;1879;45.876;12.300;2023-01-08T01:11:07;9.70;99.90
3727;DHT22;1879;45.876;12.300;2023-01-08T01:13:34;9.60;99.90
3727;DHT22;1879;45.876;12.300;2023-01-08T01:16:02;9.60;99.90
3727;DHT22;1879;45.876;12.300;2023-01-08T01:18:30;9.60;99.90
3727;DHT22;1879;45.876;12.300;2023-01-08T01:20:57;9.60;99.90
3727;DHT22;1879;45.876;12.300;2023-01-08T01:23:24;9.50;99.90
3727;DHT22;1879;45.876;12.300;2023-01-08T01:25:51;9.50;99.90
3727;DHT22;1879;45.876;12.300;2023-01-08T01:28:22;9.50;99.90
3727;DHT22;1879;45.876;12.300;2023-01-08T01:30:53;9.50;99.90
3727;DHT22;1879;45.876;12.300;2023-01-08T01:33:20;9.50;99.90
3727;DHT22;1879;45.876;12.300;2023-01-08T01:35:47;9.50;99.90
3727;DHT22;1879;45.876;12.300;2023-01-08T01:38:14;9.50;99.90
3727;DHT22;1879;45.876;12.300;2023-01-08T01:40:41;9.60;99.90
3727;DHT22;1879;45.876;12.300;2023-01-08T01:43:12;9.70;99.90
3727;DHT22;1879;45.876;12.300;2023-01-08T01:45:41;9.60;99.90
3727;DHT22;1879;45.876;12.300;2023-01-08T01:48:10;9.60;99.90
3727;DHT22;1879;45.876;12.300;2023-01-08T01:50:40;9.70;99.90
3727;DHT22;1879;45.876;12.300;2023-01-08T01:53:11;9.70;99.90
3727;DHT22;1879;45.876;12.300;2023-01-08T01:55:42;9.70;99.90
3727;DHT22;1879;45.876;12.300;2023-01-08T01:58:13;9.60;99.90
3727;DHT22;1879;45.876;12.300;2023-01-08T02:00:42;9.70;99.90
3727;DHT22;1879;45.876;12.300;2023-01-08T02:03:10;9.70;99.90
3727;DHT22;1879;45.876;12.300;2023-01-08T02:05:45;9.70;99.90
3727;DHT22;1879;45.876;12.300;2023-01-08T02:08:20;9.70;99.90
3727;DHT22;1879;45.876;12.300;2023-01-08T02:10:52;9.70;99.90
3727;DHT22;1879;45.876;12.300;2023-01-08T02:13:27;9.60;99.90
3727;DHT22;1879;45.876;12.300;2023-01-08T02:16:00;9.60;99.90
3727;DHT22;1879;45.876;12.300;2023-01-08T02:18:35;9.60;99.90
3727;DHT22;1879;45.876;12.300;2023-01-08T02:21:07;9.50;99.90
3727;DHT22;1879;45.876;12.300;2023-01-08T02:23:41;9.50;99.90
3727;DHT22;1879;45.876;12.300;2023-01-08T02:26:16;9.50;99.90
3727;DHT22;1879;45.876;12.300;2023-01-08T02:28:48;9.40;99.90
3727;DHT22;1879;45.876;12.300;2023-01-08T02:31:18;9.40;99.90
3727;DHT22;1879;45.876;12.300;2023-01-08T02:33:46;9.30;99.90
3727;DHT22;1879;45.876;12.300;2023-01-08T02:36:31;9.30;99.90
3727;DHT22;1879;45.876;12.300;2023-01-08T02:39:13;9.20;99.90
3727;DHT22;1879;45.876;12.300;2023-01-08T02:41:52;9.10;99.90
3727;DHT22;1879;45.876;12.300;2023-01-08T02:44:24;9.10;99.90
3727;DHT22;1879;45.876;12.300;2023-01-08T02:46:57;9.10;99.90
3727;DHT22;1879;45.876;12.300;2023-01-08T02:49:29;9.10;99.90
3727;DHT22;1879;45.876;12.300;2023-01-08T02:52:00;9.10;99.90
3727;DHT22;1879;45.876;12.300;2023-01-08T02:54:31;9.10;99.90
3727;DHT22;1879;45.876;12.300;2023-01-08T02:57:04;9.20;99.90
3727;DHT22;1879;45.876;12.300;2023-01-08T02:59:33;9.20;99.90
3727;DHT22;1879;45.876;12.300;2023-01-08T03:02:01;9.30;99.90
3727;DHT22;1879;45.876;12.300;2023-01-08T03:04:33;9.40;99.90
3727;DHT22;1879;45.876;12.300;2023-01-08T03:07:02;9.40;99.90
3727;DHT22;1879;45.876;12.300;2023-01-08T03:09:29;9.40;99.90
3727;DHT22;1879;45.876;12.300;2023-01-08T03:12:01;9.40;99.90
3727;DHT22;1879;45.876;12.300;2023-01-08T03:14:36;9.40;99.90
3727;DHT22;1879;45.876;12.300;2023-01-08T03:17:07;9.40;99.90
3727;DHT22;1879;45.876;12.300;2023-01-08T03:19:40;9.30;99.90
3727;DHT22;1879;45.876;12.300;2023-01-08T03:22:13;9.30;99.90
3727;DHT22;1879;45.876;12.300;2023-01-08T03:24:42;9.20;99.90
3727;DHT22;1879;45.876;12.300;2023-01-08T03:27:15;9.30;99.90
3727;DHT22;1879;45.876;12.300;2023-01-08T03:29:44;9.30;99.90
3727;DHT22;1879;45.876;12.300;2023-01-08T03:32:14;9.30;99.90
3727;DHT22;1879;45.876;12.300;2023-01-08T03:34:43;9.30;99.90
3727;DHT22;1879;45.876;12.300;2023-01-08T03:37:12;9.40;99.90
3727;DHT22;1879;45.876;12.300;2023-01-08T03:39:44;9.40;99.90
3727;DHT22;1879;45.876;12.300;2023-01-08T03:42:14;9.40;99.90
3727;DHT22;1879;45.876;12.300;2023-01-08T03:44:42;9.30;99.90
3727;DHT22;1879;45.876;12.300;2023-01-08T03:47:10;9.30;99.90
3727;DHT22;1879;45.876;12.300;2023-01-08T03:49:38;9.30;99.90
3727;DHT22;1879;45.876;12.300;2023-01-08T03:52:05;9.20;99.90
3727;DHT22;1879;45.876;12.300;2023-01-08T03:54:34;9.20;99.90
3727;DHT22;1879;45.876;12.300;2023-01-08T03:57:02;9.20;99.90
3727;DHT22;1879;45.876;12.300;2023-01-08T03:59:30;9.20;99.90
3727;DHT22;1879;45.876;12.300;2023-01-08T04:01:57;9.20;99.90
3727;DHT22;1879;45.876;12.300;2023-01-08T04:04:24;9.20;99.90
3727;DHT22;1879;45.876;12.300;2023-01-08T04:06:51;9.20;99.90
3727;DHT22;1879;45.876;12.300;2023-01-08T04:09:18;9.20;99.90
3727;DHT22;1879;45.876;12.300;2023-01-08T04:11:45;9.20;99.90
3727;DHT22;1879;45.876;12.300;2023-01-08T04:14:12;9.20;99.90
3727;DHT22;1879;45.876;12.300;2023-01-08T04:16:40;9.20;99.90
3727;DHT22;1879;45.876;12.300;2023-01-08T04:19:09;9.10;99.90
3727;DHT22;1879;45.876;12.300;2023-01-08T04:21:36;9.10;99.90
3727;DHT22;1879;45.876;12.300;2023-01-08T04:24:04;9.10;99.90
3727;DHT22;1879;45.876;12.300;2023-01-08T04:26:31;9.20;99.90
3727;DHT22;1879;45.876;12.300;2023-01-08T04:28:58;9.20;99.90
3727;DHT22;1879;45.876;12.300;2023-01-08T04:31:27;9.20;99.90
3727;DHT22;1879;45.876;12.300;2023-01-08T04:33:55;9.20;99.90
3727;DHT22;1879;45.876;12.300;2023-01-08T04:36:22;9.20;99.90
3727;DHT22;1879;45.876;12.300;2023-01-08T04:38:49;9.20;99.90
3727;DHT22;1879;45.876;12.300;2023-01-08T04:41:16;9.30;99.90
3727;DHT22;1879;45.876;12.300;2023-01-08T04:43:44;9.30;99.90
3727;DHT22;1879;45.876;12.300;2023-01-08T04:46:10;9.30;99.90
3727;DHT22;1879;45.876;12.300;2023-01-08T04:48:37;9.30;99.90
3727;DHT22;1879;45.876;12.300;2023-01-08T04:51:06;9.30;99.90
3727;DHT22;1879;45.876;12.300;2023-01-08T04:53:34;9.30;99.90
3727;DHT22;1879;45.876;12.300;2023-01-08T04:56:03;9.30;99.90
3727;DHT22;1879;45.876;12.300;2023-01-08T04:58:30;9.20;99.90
3727;DHT22;1879;45.876;12.300;2023-01-08T05:00:57;9.30;99.90
3727;DHT22;1879;45.876;12.300;2023-01-08T05:03:24;9.20;99.90
3727;DHT22;1879;45.876;12.300;2023-01-08T05:05:51;9.20;99.90
3727;DHT22;1879;45.876;12.300;2023-01-08T05:08:19;9.20;99.90
3727;DHT22;1879;45.876;12.300;2023-01-08T05:10:46;9.30;99.90
3727;DHT22;1879;45.876;12.300;2023-01-08T05:13:13;9.30;99.90
3727;DHT22;1879;45.876;12.300;2023-01-08T05:15:40;9.30;99.90
3727;DHT22;1879;45.876;12.300;2023-01-08T05:18:08;9.30;99.90
3727;DHT22;1879;45.876;12.300;2023-01-08T05:20:35;9.30;99.90
3727;DHT22;1879;45.876;12.300;2023-01-08T05:23:02;9.20;99.90
3727;DHT22;1879;45.876;12.300;2023-01-08T05:25:30;9.20;99.90
3727;DHT22;1879;45.876;12.300;2023-01-08T05:27:57;9.20;99.90
3727;DHT22;1879;45.876;12.300;2023-01-08T05:30:24;9.20;99.90
3727;DHT22;1879;45.876;12.300;2023-01-08T05:32:51;9.30;99.90
3727;DHT22;1879;45.876;12.300;2023-01-08T05:35:18;9.30;99.90
3727;DHT22;1879;45.876;12.300;2023-01-08T05:37:45;9.30;99.90
3727;DHT22;1879;45.876;12.300;2023-01-08T05:40:12;9.30;99.90
3727;DHT22;1879;45.876;12.300;2023-01-08T05:42:40;9.20;99.90
3727;DHT22;1879;45.876;12.300;2023-01-08T05:45:07;9.20;99.90
3727;DHT22;1879;45.876;12.300;2023-01-08T05:47:35;9.20;99.90
3727;DHT22;1879;45.876;12.300;2023-01-08T05:50:02;9.20;99.90
3727;DHT22;1879;45.876;12.300;2023-01-08T05:52:29;9.20;99.90
3727;DHT22;1879;45.876;12.300;2023-01-08T05:54:55;9.30;99.90
3727;DHT22;1879;45.876;12.300;2023-01-08T05:57:24;9.30;99.90
3727;DHT22;1879;45.876;12.300;2023-01-08T05:59:52;9.30;99.90
3727;DHT22;1879;45.876;12.300;2023-01-08T06:02:19;9.20;99.90
3727;DHT22;1879;45.876;12.300;2023-01-08T06:04:46;9.20;99.90
3727;DHT22;1879;45.876;12.300;2023-01-08T06:07:13;9.20;99.90
3727;DHT22;1879;45.876;12.300;2023-01-08T06:09:40;9.20;99.90
3727;DHT22;1879;45.876;12.300;2023-01-08T06:12:07;9.20;99.90
3727;DHT22;1879;45.876;12.300;2023-01-08T06:14:34;9.20;99.90
3727;DHT22;1879;45.876;12.300;2023-01-08T06:17:02;9.20;99.90
3727;DHT22;1879;45.876;12.300;2023-01-08T06:19:29;9.20;99.90
3727;DHT22;1879;45.876;12.300;2023-01-08T06:21:56;9.20;99.90
3727;DHT22;1879;45.876;12.300;2023-01-08T06:24:23;9.20;99.90
3727;DHT22;1879;45.876;12.300;2023-01-08T06:26:50;9.20;99.90
3727;DHT22;1879;45.876;12.300;2023-01-08T06:29:17;9.20;99.90
3727;DHT22;1879;45.876;12.300;2023-01-08T06:31:44;9.30;99.90
3727;DHT22;1879;45.876;12.300;2023-01-08T06:34:12;9.30;99.90
3727;DHT22;1879;45.876;12.300;2023-01-08T06:36:39;9.30;99.90
3727;DHT22;1879;45.876;12.300;2023-01-08T06:39:07;9.30;99.90
3727;DHT22;1879;45.876;12.300;2023-01-08T06:41:34;9.30;99.90
3727;DHT22;1879;45.876;12.300;2023-01-08T06:44:01;9.40;99.90
3727;DHT22;1879;45.876;12.300;2023-01-08T06:46:28;9.30;99.90
3727;DHT22;1879;45.876;12.300;2023-01-08T06:48:55;9.30;99.90
3727;DHT22;1879;45.876;12.300;2023-01-08T06:51:23;9.30;99.90
3727;DHT22;1879;45.876;12.300;2023-01-08T06:53:50;9.30;99.90
3727;DHT22;1879;45.876;12.300;2023-01-08T06:56:17;9.30;99.90
3727;DHT22;1879;45.876;12.300;2023-01-08T06:58:44;9.30;99.90
3727;DHT22;1879;45.876;12.300;2023-01-08T07:01:13;9.40;99.90
3727;DHT22;1879;45.876;12.300;2023-01-08T07:03:40;9.40;99.90
3727;DHT22;1879;45.876;12.300;2023-01-08T07:06:13;9.40;99.90
3727;DHT22;1879;45.876;12.300;2023-01-08T07:08:41;9.40;99.90
3727;DHT22;1879;45.876;12.300;2023-01-08T07:11:08;9.40;99.90
3727;DHT22;1879;45.876;12.300;2023-01-08T07:13:35;9.50;99.90
3727;DHT22;1879;45.876;12.300;2023-01-08T07:16:06;9.50;99.90
3727;DHT22;1879;45.876;12.300;2023-01-08T07:18:33;9.50;99.90
3727;DHT22;1879;45.876;12.300;2023-01-08T07:21:01;9.50;99.90
3727;DHT22;1879;45.876;12.300;2023-01-08T07:23:28;9.60;99.90
3727;DHT22;1879;45.876;12.300;2023-01-08T07:26:01;9.50;99.90
3727;DHT22;1879;45.876;12.300;2023-01-08T07:28:28;9.50;99.90
3727;DHT22;1879;45.876;12.300;2023-01-08T07:30:56;9.50;99.90
3727;DHT22;1879;45.876;12.300;2023-01-08T07:33:23;9.50;99.90
3727;DHT22;1879;45.876;12.300;2023-01-08T07:35:54;9.40;99.90
3727;DHT22;1879;45.876;12.300;2023-01-08T07:38:21;9.40;99.90
3727;DHT22;1879;45.876;12.300;2023-01-08T07:40:48;9.50;99.90
3727;DHT22;1879;45.876;12.300;2023-01-08T07:43:17;9.50;99.90
3727;DHT22;1879;45.876;12.300;2023-01-08T07:45:44;9.50;99.90
3727;DHT22;1879;45.876;12.300;2023-01-08T07:48:13;9.50;99.90
3727;DHT22;1879;45.876;12.300;2023-01-08T07:50:41;9.60;99.90
3727;DHT22;1879;45.876;12.300;2023-01-08T07:53:09;9.60;99.90
3727;DHT22;1879;45.876;12.300;2023-01-08T07:55:36;9.60;99.90
3727;DHT22;1879;45.876;12.300;2023-01-08T07:58:08;9.70;99.90
3727;DHT22;1879;45.876;12.300;2023-01-08T08:00:37;9.70;99.90
3727;DHT22;1879;45.876;12.300;2023-01-08T08:03:05;9.80;99.90
3727;DHT22;1879;45.876;12.300;2023-01-08T08:05:33;9.90;99.90
3727;DHT22;1879;45.876;12.300;2023-01-08T08:08:01;10.00;99.90
3727;DHT22;1879;45.876;12.300;2023-01-08T08:10:28;10.00;99.90
3727;DHT22;1879;45.876;12.300;2023-01-08T08:12:55;10.00;99.90
3727;DHT22;1879;45.876;12.300;2023-01-08T08:15:22;10.10;99.90
3727;DHT22;1879;45.876;12.300;2023-01-08T08:17:50;10.10;99.90
3727;DHT22;1879;45.876;12.300;2023-01-08T08:20:17;10.20;99.90
3727;DHT22;1879;45.876;12.300;2023-01-08T08:22:44;10.10;99.90
3727;DHT22;1879;45.876;12.300;2023-01-08T08:25:11;10.10;99.90
3727;DHT22;1879;45.876;12.300;2023-01-08T08:27:39;10.20;99.90
3727;DHT22;1879;45.876;12.300;2023-01-08T08:30:07;10.20;99.90
3727;DHT22;1879;45.876;12.300;2023-01-08T08:32:35;10.20;99.90
3727;DHT22;1879;45.876;12.300;2023-01-08T08:35:06;10.30;99.90
3727;DHT22;1879;45.876;12.300;2023-01-08T08:37:33;10.30;99.90
3727;DHT22;1879;45.876;12.300;2023-01-08T08:40:00;10.40;99.90
3727;DHT22;1879;45.876;12.300;2023-01-08T08:42:27;10.50;99.90
3727;DHT22;1879;45.876;12.300;2023-01-08T08:44:54;10.50;99.90
3727;DHT22;1879;45.876;12.300;2023-01-08T08:47:21;10.50;99.90
3727;DHT22;1879;45.876;12.300;2023-01-08T08:49:48;10.60;99.90
3727;DHT22;1879;45.876;12.300;2023-01-08T08:52:16;10.60;99.90
3727;DHT22;1879;45.876;12.300;2023-01-08T08:54:43;10.60;99.90
3727;DHT22;1879;45.876;12.300;2023-01-08T08:57:10;10.60;99.90
3727;DHT22;1879;45.876;12.300;2023-01-08T08:59:37;10.70;99.90
3727;DHT22;1879;45.876;12.300;2023-01-08T09:02:05;10.70;99.90
3727;DHT22;1879;45.876;12.300;2023-01-08T09:04:33;10.70;99.90
3727;DHT22;1879;45.876;12.300;2023-01-08T09:07:00;10.60;99.90
3727;DHT22;1879;45.876;12.300;2023-01-08T09:09:28;10.70;99.90
3727;DHT22;1879;45.876;12.300;2023-01-08T09:11:55;10.70;99.90
3727;DHT22;1879;45.876;12.300;2023-01-08T09:14:22;10.70;99.90
3727;DHT22;1879;45.876;12.300;2023-01-08T09:16:49;10.70;99.90
3727;DHT22;1879;45.876;12.300;2023-01-08T09:19:16;10.80;99.90
3727;DHT22;1879;45.876;12.300;2023-01-08T09:21:44;10.70;99.90
3727;DHT22;1879;45.876;12.300;2023-01-08T09:24:11;10.70;99.90
3727;DHT22;1879;45.876;12.300;2023-01-08T09:26:39;10.80;99.90
3727;DHT22;1879;45.876;12.300;2023-01-08T09:29:06;10.80;99.90
3727;DHT22;1879;45.876;12.300;2023-01-08T09:31:33;10.80;99.90
3727;DHT22;1879;45.876;12.300;2023-01-08T09:34:00;10.90;99.90
3727;DHT22;1879;45.876;12.300;2023-01-08T09:36:28;10.90;99.90
3727;DHT22;1879;45.876;12.300;2023-01-08T09:38:54;11.00;99.90
3727;DHT22;1879;45.876;12.300;2023-01-08T09:41:24;11.00;99.90
3727;DHT22;1879;45.876;12.300;2023-01-08T09:43:54;11.00;99.90
3727;DHT22;1879;45.876;12.300;2023-01-08T09:46:25;10.90;99.90
3727;DHT22;1879;45.876;12.300;2023-01-08T09:48:54;10.90;99.90
3727;DHT22;1879;45.876;12.300;2023-01-08T09:51:26;10.90;99.90
3727;DHT22;1879;45.876;12.300;2023-01-08T09:53:54;10.90;99.90
3727;DHT22;1879;45.876;12.300;2023-01-08T09:56:21;11.00;99.90
3727;DHT22;1879;45.876;12.300;2023-01-08T09:58:50;11.00;99.90
3727;DHT22;1879;45.876;12.300;2023-01-08T10:01:20;11.00;99.90
3727;DHT22;1879;45.876;12.300;2023-01-08T10:03:50;10.90;99.90
3727;DHT22;1879;45.876;12.300;2023-01-08T10:06:18;10.80;99.90
3727;DHT22;1879;45.876;12.300;2023-01-08T10:08:45;10.70;99.90
3727;DHT22;1879;45.876;12.300;2023-01-08T10:11:13;10.70;99.90
3727;DHT22;1879;45.876;12.300;2023-01-08T10:13:43;10.70;99.90
3727;DHT22;1879;45.876;12.300;2023-01-08T10:16:20;10.70;99.90
3727;DHT22;1879;45.876;12.300;2023-01-08T10:18:48;10.70;99.90
3727;DHT22;1879;45.876;12.300;2023-01-08T10:21:16;10.70;99.90
3727;DHT22;1879;45.876;12.300;2023-01-08T10:23:50;10.70;99.90
3727;DHT22;1879;45.876;12.300;2023-01-08T10:26:26;10.70;99.90
3727;DHT22;1879;45.876;12.300;2023-01-08T10:29:05;10.70;99.90
3727;DHT22;1879;45.876;12.300;2023-01-08T10:31:43;10.70;99.90
3727;DHT22;1879;45.876;12.300;2023-01-08T10:34:11;10.80;99.90
3727;DHT22;1879;45.876;12.300;2023-01-08T10:36:44;10.80;99.90
3727;DHT22;1879;45.876;12.300;2023-01-08T10:39:18;10.90;99.90
3727;DHT22;1879;45.876;12.300;2023-01-08T10:41:47;10.90;99.90
3727;DHT22;1879;45.876;12.300;2023-01-08T10:44:16;11.00;99.90
3727;DHT22;1879;45.876;12.300;2023-01-08T10:46:46;11.10;99.90
3727;DHT22;1879;45.876;12.300;2023-01-08T10:49:17;11.10;99.90
3727;DHT22;1879;45.876;12.300;2023-01-08T10:51:49;11.10;99.90
3727;DHT22;1879;45.876;12.300;2023-01-08T10:54:27;11.20;99.90
3727;DHT22;1879;45.876;12.300;2023-01-08T10:56:56;11.20;99.90
3727;DHT22;1879;45.876;12.300;2023-01-08T10:59:23;11.10;99.90
3727;DHT22;1879;45.876;12.300;2023-01-08T11:01:54;11.00;99.90
3727;DHT22;1879;45.876;12.300;2023-01-08T11:04:26;11.00;99.90
3727;DHT22;1879;45.876;12.300;2023-01-08T11:06:54;11.00;99.90
3727;DHT22;1879;45.876;12.300;2023-01-08T11:09:28;10.90;99.90
3727;DHT22;1879;45.876;12.300;2023-01-08T11:11:55;11.00;99.90
3727;DHT22;1879;45.876;12.300;2023-01-08T11:14:25;11.00;99.90
3727;DHT22;1879;45.876;12.300;2023-01-08T11:16:56;11.00;99.90
3727;DHT22;1879;45.876;12.300;2023-01-08T11:19:25;11.00;99.90
3727;DHT22;1879;45.876;12.300;2023-01-08T11:21:57;11.00;99.90
3727;DHT22;1879;45.876;12.300;2023-01-08T11:24:26;11.00;99.90
3727;DHT22;1879;45.876;12.300;2023-01-08T11:26:59;11.00;99.90
3727;DHT22;1879;45.876;12.300;2023-01-08T11:29:30;11.10;99.90
3727;DHT22;1879;45.876;12.300;2023-01-08T11:32:10;11.00;99.90
3727;DHT22;1879;45.876;12.300;2023-01-08T11:34:50;11.00;99.90
3727;DHT22;1879;45.876;12.300;2023-01-08T11:37:24;11.10;99.90
3727;DHT22;1879;45.876;12.300;2023-01-08T11:39:53;11.10;99.90
3727;DHT22;1879;45.876;12.300;2023-01-08T11:42:33;11.10;99.90
3727;DHT22;1879;45.876;12.300;2023-01-08T11:45:10;11.00;99.90
3727;DHT22;1879;45.876;12.300;2023-01-08T11:50:42;11.10;99.90
3727;DHT22;1879;45.876;12.300;2023-01-08T11:53:18;11.10;99.90
3727;DHT22;1879;45.876;12.300;2023-01-08T11:55:54;11.10;99.90
3727;DHT22;1879;45.876;12.300;2023-01-08T11:58:32;11.20;99.90
3727;DHT22;1879;45.876;12.300;2023-01-08T12:01:13;11.10;99.90
3727;DHT22;1879;45.876;12.300;2023-01-08T12:03:48;11.00;99.90
3727;DHT22;1879;45.876;12.300;2023-01-08T12:06:27;10.90;99.90
3727;DHT22;1879;45.876;12.300;2023-01-08T12:09:06;10.80;99.90
3727;DHT22;1879;45.876;12.300;2023-01-08T12:11:39;10.80;99.90
3727;DHT22;1879;45.876;12.300;2023-01-08T12:14:21;10.90;99.90
3727;DHT22;1879;45.876;12.300;2023-01-08T12:17:08;10.90;99.90
3727;DHT22;1879;45.876;12.300;2023-01-08T12:19:54;10.90;99.90
3727;DHT22;1879;45.876;12.300;2023-01-08T12:22:32;10.90;99.90
3727;DHT22;1879;45.876;12.300;2023-01-08T12:25:22;10.90;99.90
3727;DHT22;1879;45.876;12.300;2023-01-08T12:27:57;10.90;99.90
3727;DHT22;1879;45.876;12.300;2023-01-08T12:30:39;10.90;99.90
3727;DHT22;1879;45.876;12.300;2023-01-08T12:33:14;10.90;99.90
3727;DHT22;1879;45.876;12.300;2023-01-08T12:35:47;10.90;99.90
3727;DHT22;1879;45.876;12.300;2023-01-08T12:38:19;11.00;99.90
3727;DHT22;1879;45.876;12.300;2023-01-08T12:40:50;11.00;99.90
3727;DHT22;1879;45.876;12.300;2023-01-08T12:43:29;10.90;99.90
3727;DHT22;1879;45.876;12.300;2023-01-08T12:45:58;10.80;99.90
3727;DHT22;1879;45.876;12.300;2023-01-08T12:48:28;10.80;99.90
3727;DHT22;1879;45.876;12.300;2023-01-08T12:51:00;10.70;99.90
3727;DHT22;1879;45.876;12.300;2023-01-08T12:53:36;10.70;99.90
3727;DHT22;1879;45.876;12.300;2023-01-08T12:56:10;10.80;99.90
3727;DHT22;1879;45.876;12.300;2023-01-08T12:58:52;10.80;99.90
3727;DHT22;1879;45.876;12.300;2023-01-08T13:01:30;10.80;99.90
3727;DHT22;1879;45.876;12.300;2023-01-08T13:03:59;10.80;99.90
3727;DHT22;1879;45.876;12.300;2023-01-08T13:06:30;10.80;99.90
3727;DHT22;1879;45.876;12.300;2023-01-08T13:08:58;10.70;99.90
3727;DHT22;1879;45.876;12.300;2023-01-08T13:11:27;10.70;99.90
3727;DHT22;1879;45.876;12.300;2023-01-08T13:14:00;10.70;99.90
3727;DHT22;1879;45.876;12.300;2023-01-08T13:16:28;10.70;99.90
3727;DHT22;1879;45.876;12.300;2023-01-08T13:18:57;10.70;99.90
3727;DHT22;1879;45.876;12.300;2023-01-08T13:21:31;10.60;99.90
3727;DHT22;1879;45.876;12.300;2023-01-08T13:24:00;10.60;99.90
3727;DHT22;1879;45.876;12.300;2023-01-08T13:26:29;10.60;99.90
3727;DHT22;1879;45.876;12.300;2023-01-08T13:29:06;10.60;99.90
3727;DHT22;1879;45.876;12.300;2023-01-08T13:31:38;10.60;99.90
3727;DHT22;1879;45.876;12.300;2023-01-08T13:34:22;10.60;99.90
3727;DHT22;1879;45.876;12.300;2023-01-08T13:37:04;10.60;99.90
3727;DHT22;1879;45.876;12.300;2023-01-08T13:39:33;10.50;99.90
3727;DHT22;1879;45.876;12.300;2023-01-08T13:42:20;10.50;99.90
3727;DHT22;1879;45.876;12.300;2023-01-08T13:44:49;10.50;99.90
3727;DHT22;1879;45.876;12.300;2023-01-08T13:47:27;10.50;99.90
3727;DHT22;1879;45.876;12.300;2023-01-08T13:49:56;10.40;99.90
3727;DHT22;1879;45.876;12.300;2023-01-08T13:52:31;10.30;99.90
3727;DHT22;1879;45.876;12.300;2023-01-08T13:55:02;10.30;99.90
3727;DHT22;1879;45.876;12.300;2023-01-08T13:57:36;10.30;99.90
3727;DHT22;1879;45.876;12.300;2023-01-08T14:00:06;10.30;99.90
3727;DHT22;1879;45.876;12.300;2023-01-08T14:02:42;10.10;99.90
3727;DHT22;1879;45.876;12.300;2023-01-08T14:05:21;10.10;99.90
3727;DHT22;1879;45.876;12.300;2023-01-08T14:07:50;10.10;99.90
3727;DHT22;1879;45.876;12.300;2023-01-08T14:10:17;10.10;99.90
3727;DHT22;1879;45.876;12.300;2023-01-08T14:12:45;10.10;99.90
3727;DHT22;1879;45.876;12.300;2023-01-08T14:15:20;10.10;99.90
3727;DHT22;1879;45.876;12.300;2023-01-08T14:17:48;10.10;99.90
3727;DHT22;1879;45.876;12.300;2023-01-08T14:20:22;10.20;99.90
3727;DHT22;1879;45.876;12.300;2023-01-08T14:22:51;10.30;99.90
3727;DHT22;1879;45.876;12.300;2023-01-08T14:25:18;10.30;99.90
3727;DHT22;1879;45.876;12.300;2023-01-08T14:27:57;10.30;99.90
3727;DHT22;1879;45.876;12.300;2023-01-08T14:30:24;10.30;99.90
3727;DHT22;1879;45.876;12.300;2023-01-08T14:32:52;10.20;99.90
3727;DHT22;1879;45.876;12.300;2023-01-08T14:35:25;10.20;99.90
3727;DHT22;1879;45.876;12.300;2023-01-08T14:37:55;10.10;99.90
3727;DHT22;1879;45.876;12.300;2023-01-08T14:40:31;10.00;99.90
3727;DHT22;1879;45.876;12.300;2023-01-08T14:43:02;10.00;99.90
3727;DHT22;1879;45.876;12.300;2023-01-08T14:45:32;10.00;99.90
3727;DHT22;1879;45.876;12.300;2023-01-08T14:48:01;9.90;99.90
3727;DHT22;1879;45.876;12.300;2023-01-08T14:50:35;9.90;99.90
3727;DHT22;1879;45.876;12.300;2023-01-08T14:53:06;9.90;99.90
3727;DHT22;1879;45.876;12.300;2023-01-08T14:55:35;9.90;99.90
3727;DHT22;1879;45.876;12.300;2023-01-08T14:58:11;9.90;99.90
3727;DHT22;1879;45.876;12.300;2023-01-08T15:00:39;9.90;99.90
3727;DHT22;1879;45.876;12.300;2023-01-08T15:03:25;9.90;99.90
3727;DHT22;1879;45.876;12.300;2023-01-08T15:05:54;9.90;99.90
3727;DHT22;1879;45.876;12.300;2023-01-08T15:08:24;10.00;99.90
3727;DHT22;1879;45.876;12.300;2023-01-08T15:10:59;9.90;99.90
3727;DHT22;1879;45.876;12.300;2023-01-08T15:13:30;9.90;99.90
3727;DHT22;1879;45.876;12.300;2023-01-08T15:16:01;9.90;99.90
3727;DHT22;1879;45.876;12.300;2023-01-08T15:18:30;9.90;99.90
3727;DHT22;1879;45.876;12.300;2023-01-08T15:20:59;10.00;99.90
3727;DHT22;1879;45.876;12.300;2023-01-08T15:23:34;9.90;99.90
3727;DHT22;1879;45.876;12.300;2023-01-08T15:26:03;9.90;99.90
3727;DHT22;1879;45.876;12.300;2023-01-08T15:28:34;9.90;99.90
3727;DHT22;1879;45.876;12.300;2023-01-08T15:31:01;9.90;99.90
3727;DHT22;1879;45.876;12.300;2023-01-08T15:33:28;9.90;99.90
3727;DHT22;1879;45.876;12.300;2023-01-08T15:35:55;9.80;99.90
3727;DHT22;1879;45.876;12.300;2023-01-08T15:38:23;9.90;99.90
3727;DHT22;1879;45.876;12.300;2023-01-08T15:40:53;9.80;99.90
3727;DHT22;1879;45.876;12.300;2023-01-08T15:43:20;9.80;99.90
3727;DHT22;1879;45.876;12.300;2023-01-08T15:45:47;9.80;99.90
3727;DHT22;1879;45.876;12.300;2023-01-08T15:48:15;9.80;99.90
3727;DHT22;1879;45.876;12.300;2023-01-08T15:50:43;9.80;99.90
3727;DHT22;1879;45.876;12.300;2023-01-08T15:53:16;9.80;99.90
3727;DHT22;1879;45.876;12.300;2023-01-08T15:55:43;9.80;99.90
3727;DHT22;1879;45.876;12.300;2023-01-08T15:58:13;9.80;99.90
3727;DHT22;1879;45.876;12.300;2023-01-08T16:00:42;9.90;99.90
3727;DHT22;1879;45.876;12.300;2023-01-08T16:03:11;9.90;99.90
3727;DHT22;1879;45.876;12.300;2023-01-08T16:05:38;9.80;99.90
3727;DHT22;1879;45.876;12.300;2023-01-08T16:08:05;9.90;99.90
3727;DHT22;1879;45.876;12.300;2023-01-08T16:10:32;9.80;99.90
3727;DHT22;1879;45.876;12.300;2023-01-08T16:12:59;9.90;99.90
3727;DHT22;1879;45.876;12.300;2023-01-08T16:15:28;9.90;99.90